createdAt,value
2016-12-29T00:00:16.560Z,85.66
2016-12-29T00:01:16.958Z,85.47
2016-12-29T00:02:16.542Z,85.95
2016-12-29T00:03:16.534Z,85.15
2016-12-29T00:04:16.942Z,85.34
2016-12-29T00:05:16.522Z,85.91
2016-12-29T00:06:16.938Z,85.72
2016-12-29T00:07:16.922Z,85.43
2016-12-29T00:08:16.926Z,85.62
2016-12-29T00:09:16.918Z,85.62
2016-12-29T00:10:16.502Z,85.43
2016-12-29T00:11:16.506Z,85.34
2016-12-29T00:12:16.494Z,85.81
2016-12-29T00:13:16.898Z,86
2016-12-29T00:14:16.890Z,85.3
2016-12-29T00:15:16.894Z,85.86
2016-12-29T00:16:16.883Z,85.68
2016-12-29T00:17:16.882Z,85.3
2016-12-29T00:18:16.877Z,86.33
2016-12-29T00:19:16.862Z,85.96
2016-12-29T00:20:16.870Z,85.86
2016-12-29T00:21:16.858Z,86.33
2016-12-29T00:22:16.854Z,86.52
2016-12-29T00:23:16.846Z,86.57
2016-12-29T00:24:16.855Z,86.86
2016-12-29T00:25:16.431Z,87.05
2016-12-29T00:26:16.839Z,87.14
2016-12-29T00:27:16.418Z,86.86
2016-12-29T00:28:16.832Z,87.14
2016-12-29T00:29:16.411Z,87.43
2016-12-29T00:30:16.407Z,87.8
2016-12-29T00:31:16.815Z,87.52
2016-12-29T00:32:16.395Z,87.24
2016-12-29T00:33:16.803Z,87.43
2016-12-29T00:34:16.803Z,87.99
2016-12-29T00:35:16.379Z,87.71
2016-12-29T00:36:16.787Z,88.09
2016-12-29T00:37:16.375Z,88.46
2016-12-29T00:38:16.775Z,88.65
2016-12-29T00:39:16.779Z,88.56
2016-12-29T00:40:16.351Z,88.56
2016-12-29T00:41:16.759Z,88.65
2016-12-29T00:42:16.759Z,89.12
2016-12-29T00:43:16.751Z,89.03
2016-12-29T00:44:16.583Z,88.65
2016-12-29T00:45:16.743Z,89.03
2016-12-29T00:46:16.743Z,89.22
2016-12-29T00:47:16.736Z,89.4
2016-12-29T00:48:16.735Z,89.22
2016-12-29T00:49:16.729Z,89.31
2016-12-29T00:50:16.711Z,89.5
2016-12-29T00:51:16.307Z,89.69
2016-12-29T00:52:16.713Z,89.4
2016-12-29T00:53:16.711Z,89.78
2016-12-29T00:54:16.703Z,90.07
2016-12-29T00:55:16.696Z,89.78
2016-12-29T00:56:16.684Z,89.4
2016-12-29T00:57:16.691Z,90.07
2016-12-29T00:58:16.680Z,89.97
2016-12-29T00:59:16.680Z,90.73
2016-12-29T01:00:16.260Z,90.54
2016-12-29T01:01:16.663Z,90.45
2016-12-29T01:02:16.655Z,90.68
2016-12-29T01:03:16.244Z,90.68
2016-12-29T01:04:16.655Z,90.64
2016-12-29T01:05:16.652Z,90.5
2016-12-29T01:06:16.636Z,90.5
2016-12-29T01:07:16.632Z,90.5
2016-12-29T01:08:16.628Z,90.92
2016-12-29T01:09:16.216Z,90.87
2016-12-29T01:10:16.626Z,91.06
2016-12-29T01:11:16.616Z,90.87
2016-12-29T01:12:16.612Z,91.16
2016-12-29T01:13:16.608Z,90.59
2016-12-29T01:14:16.608Z,90.78
2016-12-29T01:15:16.592Z,91.53
2016-12-29T01:16:16.180Z,91.25
2016-12-29T01:17:16.584Z,91.35
2016-12-29T01:18:16.580Z,91.53
2016-12-29T01:19:16.576Z,91.35
2016-12-29T01:20:16.160Z,91.25
2016-12-29T01:21:16.564Z,91.44
2016-12-29T01:22:16.565Z,91.63
2016-12-29T01:23:16.556Z,91.53
2016-12-29T01:24:16.141Z,91.63
2016-12-29T01:25:16.552Z,91.63
2016-12-29T01:26:16.544Z,91.16
2016-12-29T01:27:16.538Z,90.78
2016-12-29T01:28:16.118Z,91.35
2016-12-29T01:29:16.529Z,91.25
2016-12-29T01:30:16.525Z,91.44
2016-12-29T01:31:16.517Z,91.25
2016-12-29T01:32:16.513Z,91.44
2016-12-29T01:33:16.513Z,91.35
2016-12-29T01:34:16.496Z,91.25
2016-12-29T01:35:16.494Z,91.35
2016-12-29T01:36:16.493Z,91.35
2016-12-29T01:37:16.489Z,91.44
2016-12-29T01:38:16.477Z,91.53
2016-12-29T01:39:16.480Z,91.44
2016-12-29T01:40:16.473Z,91.44
2016-12-29T01:41:16.473Z,91.44
2016-12-29T01:42:16.049Z,91.44
2016-12-29T01:43:16.453Z,92
2016-12-29T01:44:16.457Z,91.91
2016-12-29T01:45:16.449Z,92
2016-12-29T01:46:16.441Z,92
2016-12-29T01:47:16.441Z,91.72
2016-12-29T01:48:16.429Z,91.63
2016-12-29T01:49:16.429Z,91.63
2016-12-29T01:50:16.417Z,91.72
2016-12-29T01:51:16.005Z,91.63
2016-12-29T01:52:16.410Z,92.19
2016-12-29T01:53:16.402Z,92.19
2016-12-29T01:54:16.405Z,92.57
2016-12-29T01:55:15.990Z,92.29
2016-12-29T01:56:16.386Z,92.29
2016-12-29T01:57:15.978Z,92.29
2016-12-29T01:58:16.385Z,92.85
2016-12-29T01:59:16.382Z,92.38
2016-12-29T02:00:16.365Z,92.29
2016-12-29T02:01:16.374Z,92.29
2016-12-29T02:02:16.363Z,93.04
2016-12-29T02:03:15.942Z,92.85
2016-12-29T02:04:15.939Z,92.57
2016-12-29T02:05:16.346Z,92.66
2016-12-29T02:06:16.342Z,92.76
2016-12-29T02:07:16.330Z,92.85
2016-12-29T02:08:16.334Z,92.85
2016-12-29T02:09:16.322Z,92.85
2016-12-29T02:10:16.327Z,93.13
2016-12-29T02:11:15.898Z,92.29
2016-12-29T02:12:15.902Z,92.29
2016-12-29T02:13:16.302Z,93.04
2016-12-29T02:14:15.894Z,93.13
2016-12-29T02:15:16.294Z,93.13
2016-12-29T02:16:16.287Z,92.85
2016-12-29T02:17:16.282Z,92.85
2016-12-29T02:18:16.283Z,92.57
2016-12-29T02:19:15.866Z,92.85
2016-12-29T02:20:15.855Z,92.57
2016-12-29T02:21:16.266Z,92.66
2016-12-29T02:22:16.262Z,92.57
2016-12-29T02:23:16.263Z,92.66
2016-12-29T02:24:16.247Z,92.99
2016-12-29T02:25:16.242Z,93.32
2016-12-29T02:26:16.238Z,92.99
2016-12-29T02:27:16.243Z,93.75
2016-12-29T02:28:16.223Z,93.51
2016-12-29T02:29:16.215Z,93.47
2016-12-29T02:30:16.223Z,93.56
2016-12-29T02:31:15.803Z,93.56
2016-12-29T02:32:15.795Z,93.56
2016-12-29T02:33:15.795Z,93.7
2016-12-29T02:34:16.199Z,93.56
2016-12-29T02:35:16.191Z,93.56
2016-12-29T02:36:16.187Z,93.65
2016-12-29T02:37:16.179Z,93.47
2016-12-29T02:38:16.179Z,93.56
2016-12-29T02:39:16.175Z,93.65
2016-12-29T02:40:16.167Z,93.47
2016-12-29T02:41:16.167Z,93.75
2016-12-29T02:42:16.183Z,93.65
2016-12-29T02:43:16.152Z,93.56
2016-12-29T02:44:15.735Z,93.65
2016-12-29T02:45:16.132Z,93.47
2016-12-29T02:46:16.136Z,93.47
2016-12-29T02:47:15.724Z,93.47
2016-12-29T02:48:15.720Z,93.56
2016-12-29T02:49:16.119Z,93.56
2016-12-29T02:50:15.703Z,93.65
2016-12-29T02:51:15.692Z,93.56
2016-12-29T02:52:15.720Z,93.65
2016-12-29T02:53:15.688Z,93.56
2016-12-29T02:54:15.684Z,93.47
2016-12-29T02:55:16.088Z,93.65
2016-12-29T02:56:15.672Z,93.37
2016-12-29T02:57:16.084Z,93.18
2016-12-29T02:58:15.660Z,93.18
2016-12-29T02:59:15.660Z,93.56
2016-12-29T03:00:15.652Z,93.47
2016-12-29T03:01:15.644Z,93.28
2016-12-29T03:02:15.641Z,94.22
2016-12-29T03:03:15.636Z,93.94
2016-12-29T03:04:15.628Z,93.65
2016-12-29T03:05:15.624Z,93.84
2016-12-29T03:06:15.620Z,93.65
2016-12-29T03:07:15.617Z,93.47
2016-12-29T03:08:15.608Z,93.65
2016-12-29T03:09:15.608Z,93.75
2016-12-29T03:10:15.597Z,93.65
2016-12-29T03:11:15.597Z,93.56
2016-12-29T03:12:15.589Z,93.56
2016-12-29T03:13:15.989Z,93.75
2016-12-29T03:14:15.577Z,93.47
2016-12-29T03:15:15.568Z,93.47
2016-12-29T03:16:15.572Z,93.56
2016-12-29T03:17:15.965Z,93.47
2016-12-29T03:18:15.969Z,93.56
2016-12-29T03:19:15.969Z,93.65
2016-12-29T03:20:15.953Z,93.47
2016-12-29T03:21:15.949Z,93.56
2016-12-29T03:22:15.954Z,93.47
2016-12-29T03:23:15.937Z,93.75
2016-12-29T03:24:15.941Z,93.75
2016-12-29T03:25:15.933Z,94.13
2016-12-29T03:26:15.925Z,94.32
2016-12-29T03:27:15.926Z,94.6
2016-12-29T03:28:15.909Z,94.22
2016-12-29T03:29:15.494Z,94.22
2016-12-29T03:30:15.493Z,94.22
2016-12-29T03:31:15.898Z,94.32
2016-12-29T03:32:15.485Z,94.79
2016-12-29T03:33:15.482Z,94.22
2016-12-29T03:34:15.477Z,94.41
2016-12-29T03:35:15.878Z,94.03
2016-12-29T03:36:15.465Z,94.13
2016-12-29T03:37:15.873Z,94.13
2016-12-29T03:38:15.861Z,93.65
2016-12-29T03:39:15.858Z,94.22
2016-12-29T03:40:15.850Z,94.13
2016-12-29T03:41:15.846Z,94.41
2016-12-29T03:42:15.841Z,94.22
2016-12-29T03:43:15.430Z,94.6
2016-12-29T03:44:15.422Z,94.13
2016-12-29T03:45:15.414Z,94.32
2016-12-29T03:46:15.806Z,94.6
2016-12-29T03:47:15.818Z,94.32
2016-12-29T03:48:15.814Z,94.6
2016-12-29T03:49:15.802Z,94.6
2016-12-29T03:50:15.795Z,94.88
2016-12-29T03:51:15.790Z,94.6
2016-12-29T03:52:15.798Z,94.6
2016-12-29T03:53:15.782Z,93.65
2016-12-29T03:54:15.366Z,94.41
2016-12-29T03:55:15.363Z,94.41
2016-12-29T03:56:15.767Z,93.94
2016-12-29T03:57:15.763Z,94.22
2016-12-29T03:58:15.747Z,93.75
2016-12-29T03:59:15.755Z,93.56
2016-12-29T04:00:15.743Z,94.13
2016-12-29T04:01:15.739Z,93.75
2016-12-29T04:02:15.735Z,94.03
2016-12-29T04:03:15.319Z,94.22
2016-12-29T04:04:15.719Z,94.22
2016-12-29T04:05:15.715Z,94.22
2016-12-29T04:06:15.719Z,93.65
2016-12-29T04:07:15.710Z,93.75
2016-12-29T04:08:15.703Z,93.65
2016-12-29T04:09:15.695Z,93.75
2016-12-29T04:10:15.275Z,93.75
2016-12-29T04:11:15.275Z,93.84
2016-12-29T04:12:15.275Z,93.65
2016-12-29T04:13:15.671Z,93.65
2016-12-29T04:14:15.671Z,93.65
2016-12-29T04:15:15.671Z,93.84
2016-12-29T04:16:15.655Z,93.94
2016-12-29T04:17:15.655Z,93.65
2016-12-29T04:18:15.651Z,93.65
2016-12-29T04:19:15.235Z,93.65
2016-12-29T04:20:15.639Z,93.75
2016-12-29T04:21:15.635Z,93.65
2016-12-29T04:22:15.623Z,93.18
2016-12-29T04:23:15.624Z,93.28
2016-12-29T04:24:15.207Z,93.75
2016-12-29T04:25:15.612Z,93.75
2016-12-29T04:26:15.192Z,93.94
2016-12-29T04:27:15.596Z,93.84
2016-12-29T04:28:15.595Z,94.03
2016-12-29T04:29:15.592Z,93.94
2016-12-29T04:30:15.584Z,93.65
2016-12-29T04:31:15.168Z,93.56
2016-12-29T04:32:15.160Z,93.37
2016-12-29T04:33:15.564Z,93.47
2016-12-29T04:34:15.156Z,93.37
2016-12-29T04:35:15.556Z,93.65
2016-12-29T04:36:15.140Z,93.75
2016-12-29T04:37:15.136Z,94.13
2016-12-29T04:38:15.547Z,94.32
2016-12-29T04:39:15.532Z,94.41
2016-12-29T04:40:15.528Z,94.51
2016-12-29T04:41:15.528Z,93.94
2016-12-29T04:42:15.108Z,94.03
2016-12-29T04:43:15.109Z,94.13
2016-12-29T04:44:15.515Z,94.03
2016-12-29T04:45:15.508Z,93.65
2016-12-29T04:46:15.497Z,94.41
2016-12-29T04:47:15.488Z,93.75
2016-12-29T04:48:15.077Z,93.56
2016-12-29T04:49:15.484Z,93.94
2016-12-29T04:50:15.473Z,93.47
2016-12-29T04:51:15.469Z,93.65
2016-12-29T04:52:15.461Z,94.41
2016-12-29T04:53:15.052Z,93.75
2016-12-29T04:54:15.449Z,93.75
2016-12-29T04:55:15.449Z,93.75
2016-12-29T04:56:15.463Z,93.84
2016-12-29T04:57:15.485Z,93.94
2016-12-29T04:58:15.025Z,93.94
2016-12-29T04:59:15.017Z,93.84
2016-12-29T05:00:15.425Z,94.41
2016-12-29T05:01:15.426Z,93.65
2016-12-29T05:02:15.413Z,93.37
2016-12-29T05:03:14.989Z,93.65
2016-12-29T05:04:15.405Z,93.28
2016-12-29T05:05:15.397Z,93.09
2016-12-29T05:06:15.397Z,92.99
2016-12-29T05:07:15.385Z,93.09
2016-12-29T05:08:14.965Z,92.71
2016-12-29T05:09:14.957Z,92.9
2016-12-29T05:10:15.373Z,92.9
2016-12-29T05:11:15.361Z,92.61
2016-12-29T05:12:15.361Z,92.61
2016-12-29T05:13:15.366Z,92.9
2016-12-29T05:14:15.337Z,92.8
2016-12-29T05:15:15.337Z,92.9
2016-12-29T05:16:15.337Z,92.99
2016-12-29T05:17:15.329Z,92.8
2016-12-29T05:18:14.910Z,92.9
2016-12-29T05:19:15.309Z,92.99
2016-12-29T05:20:15.314Z,92.71
2016-12-29T05:21:15.310Z,92.99
2016-12-29T05:22:14.894Z,92.71
2016-12-29T05:23:15.285Z,92.99
2016-12-29T05:24:15.286Z,92.61
2016-12-29T05:25:15.538Z,92.61
2016-12-29T05:26:15.285Z,92.52
2016-12-29T05:27:14.862Z,92.8
2016-12-29T05:28:15.270Z,92.9
2016-12-29T05:29:15.266Z,92.8
2016-12-29T05:30:15.258Z,93.09
2016-12-29T05:31:15.254Z,92.43
2016-12-29T05:32:14.838Z,92.43
2016-12-29T05:33:15.245Z,92.24
2016-12-29T05:34:15.234Z,92.24
2016-12-29T05:35:14.822Z,92.05
2016-12-29T05:36:15.226Z,92.33
2016-12-29T05:37:15.218Z,92.05
2016-12-29T05:38:15.214Z,92.24
2016-12-29T05:39:15.210Z,92.33
2016-12-29T05:40:14.799Z,92.43
2016-12-29T05:41:15.198Z,92.05
2016-12-29T05:42:15.190Z,92.05
2016-12-29T05:43:15.190Z,92.24
2016-12-29T05:44:14.774Z,91.77
2016-12-29T05:45:15.174Z,92.24
2016-12-29T05:46:15.170Z,91.96
2016-12-29T05:47:15.166Z,92.33
2016-12-29T05:48:15.163Z,92.05
2016-12-29T05:49:15.153Z,92.14
2016-12-29T05:50:15.146Z,92.43
2016-12-29T05:51:15.151Z,92.33
2016-12-29T05:52:14.722Z,91.96
2016-12-29T05:53:15.131Z,92.14
2016-12-29T05:54:14.715Z,92.61
2016-12-29T05:55:15.123Z,92.24
2016-12-29T05:56:15.119Z,92.52
2016-12-29T05:57:15.111Z,91.96
2016-12-29T05:58:14.702Z,91.77
2016-12-29T05:59:15.103Z,91.77
2016-12-29T06:00:14.687Z,91.96
2016-12-29T06:01:14.687Z,91.86
2016-12-29T06:02:15.083Z,91.96
2016-12-29T06:03:15.083Z,91.58
2016-12-29T06:04:14.663Z,92.14
2016-12-29T06:05:15.071Z,92.24
2016-12-29T06:06:15.059Z,92.43
2016-12-29T06:07:15.047Z,92.24
2016-12-29T06:08:14.643Z,92.43
2016-12-29T06:09:15.043Z,92.24
2016-12-29T06:10:15.035Z,92.14
2016-12-29T06:11:15.039Z,92.43
2016-12-29T06:12:15.027Z,92.43
2016-12-29T06:13:15.027Z,92.33
2016-12-29T06:14:15.015Z,92.24
2016-12-29T06:15:14.599Z,92.33
2016-12-29T06:16:15.011Z,92.99
2016-12-29T06:17:15.007Z,92.99
2016-12-29T06:18:15.000Z,92.61
2016-12-29T06:19:14.579Z,92.99
2016-12-29T06:20:14.980Z,92.24
2016-12-29T06:21:14.983Z,92.33
2016-12-29T06:22:14.972Z,92.43
2016-12-29T06:23:14.968Z,92.14
2016-12-29T06:24:14.961Z,91.77
2016-12-29T06:25:14.955Z,92.14
2016-12-29T06:26:14.975Z,91.67
2016-12-29T06:27:14.940Z,91.53
2016-12-29T06:28:14.943Z,92.24
2016-12-29T06:29:14.932Z,92.29
2016-12-29T06:30:14.516Z,92
2016-12-29T06:31:14.924Z,91.91
2016-12-29T06:32:14.924Z,91.82
2016-12-29T06:33:14.500Z,91.96
2016-12-29T06:34:14.900Z,91.96
2016-12-29T06:35:14.500Z,92.1
2016-12-29T06:36:14.896Z,91.82
2016-12-29T06:37:14.484Z,92
2016-12-29T06:38:14.888Z,92
2016-12-29T06:39:14.890Z,91.82
2016-12-29T06:40:14.872Z,92
2016-12-29T06:41:14.864Z,91.53
2016-12-29T06:42:14.860Z,91.72
2016-12-29T06:43:14.860Z,92.1
2016-12-29T06:44:14.436Z,91.82
2016-12-29T06:45:14.848Z,91.91
2016-12-29T06:46:14.844Z,92.19
2016-12-29T06:47:14.428Z,91.72
2016-12-29T06:48:14.417Z,91.72
2016-12-29T06:49:14.824Z,91.91
2016-12-29T06:50:14.817Z,91.82
2016-12-29T06:51:14.405Z,91.82
2016-12-29T06:52:14.812Z,92.1
2016-12-29T06:53:14.804Z,92
2016-12-29T06:54:14.388Z,92
2016-12-29T06:55:14.789Z,91.82
2016-12-29T06:56:14.788Z,91.91
2016-12-29T06:57:14.777Z,91.82
2016-12-29T06:58:14.364Z,91.82
2016-12-29T06:59:14.769Z,91.82
2016-12-29T07:00:14.761Z,91.82
2016-12-29T07:01:14.349Z,91.82
2016-12-29T07:02:14.754Z,92
2016-12-29T07:03:14.749Z,91.82
2016-12-29T07:04:14.329Z,91.91
2016-12-29T07:05:14.330Z,91.82
2016-12-29T07:06:14.733Z,91.72
2016-12-29T07:07:14.313Z,92
2016-12-29T07:08:14.725Z,92.1
2016-12-29T07:09:14.717Z,92
2016-12-29T07:10:14.709Z,92.24
2016-12-29T07:11:14.293Z,92
2016-12-29T07:12:14.701Z,92
2016-12-29T07:13:14.702Z,92
2016-12-29T07:14:14.277Z,92.38
2016-12-29T07:15:14.689Z,92.1
2016-12-29T07:16:14.273Z,92.1
2016-12-29T07:17:14.669Z,91.91
2016-12-29T07:18:14.669Z,92
2016-12-29T07:19:14.665Z,91.82
2016-12-29T07:20:14.653Z,91.72
2016-12-29T07:21:14.269Z,91.91
2016-12-29T07:22:14.641Z,91.72
2016-12-29T07:23:14.638Z,91.58
2016-12-29T07:24:14.630Z,91.53
2016-12-29T07:25:14.625Z,91.58
2016-12-29T07:26:14.622Z,91.96
2016-12-29T07:27:14.614Z,91.96
2016-12-29T07:28:14.198Z,91.86
2016-12-29T07:29:14.226Z,92.14
2016-12-29T07:30:14.598Z,92.05
2016-12-29T07:31:14.590Z,91.86
2016-12-29T07:32:14.173Z,91.86
2016-12-29T07:33:14.578Z,91.86
2016-12-29T07:34:14.578Z,91.77
2016-12-29T07:35:14.162Z,92.05
2016-12-29T07:36:14.574Z,91.58
2016-12-29T07:37:14.150Z,91.58
2016-12-29T07:38:14.550Z,91.67
2016-12-29T07:39:14.554Z,92.14
2016-12-29T07:40:14.546Z,92.43
2016-12-29T07:41:14.538Z,92.24
2016-12-29T07:42:14.530Z,92.52
2016-12-29T07:43:14.118Z,92.14
2016-12-29T07:44:14.106Z,92.43
2016-12-29T07:45:14.518Z,92.33
2016-12-29T07:46:14.106Z,92.33
2016-12-29T07:47:14.502Z,92.24
2016-12-29T07:48:14.090Z,92.24
2016-12-29T07:49:14.494Z,92.8
2016-12-29T07:50:14.082Z,92.52
2016-12-29T07:51:14.486Z,92.71
2016-12-29T07:52:14.482Z,92.71
2016-12-29T07:53:14.474Z,92.71
2016-12-29T07:54:14.467Z,92.8
2016-12-29T07:55:14.463Z,92.71
2016-12-29T07:56:14.455Z,92.61
2016-12-29T07:57:14.454Z,92.71
2016-12-29T07:58:14.447Z,92.8
2016-12-29T07:59:14.023Z,92.8
2016-12-29T08:00:14.023Z,92.99
2016-12-29T08:01:14.019Z,92.9
2016-12-29T08:02:14.427Z,92.9
2016-12-29T08:03:14.419Z,92.85
2016-12-29T08:04:14.418Z,92.95
2016-12-29T08:05:14.407Z,93.04
2016-12-29T08:06:14.403Z,93.04
2016-12-29T08:07:14.399Z,93.04
2016-12-29T08:08:13.984Z,93.04
2016-12-29T08:09:14.387Z,92.85
2016-12-29T08:10:13.983Z,93.32
2016-12-29T08:11:14.375Z,93.23
2016-12-29T08:12:14.379Z,92.85
2016-12-29T08:13:14.366Z,93.51
2016-12-29T08:14:14.359Z,93.13
2016-12-29T08:15:14.351Z,93.42
2016-12-29T08:16:14.347Z,93.8
2016-12-29T08:17:14.339Z,93.32
2016-12-29T08:18:13.923Z,93.61
2016-12-29T08:19:14.331Z,93.8
2016-12-29T08:20:13.916Z,93.42
2016-12-29T08:21:14.323Z,93.51
2016-12-29T08:22:14.324Z,93.7
2016-12-29T08:23:13.903Z,93.61
2016-12-29T08:24:13.896Z,93.7
2016-12-29T08:25:14.299Z,93.42
2016-12-29T08:26:13.883Z,93.8
2016-12-29T08:27:13.879Z,94.65
2016-12-29T08:28:14.291Z,93.8
2016-12-29T08:29:14.276Z,93.8
2016-12-29T08:30:13.868Z,93.99
2016-12-29T08:31:13.859Z,93.61
2016-12-29T08:32:13.855Z,93.66
2016-12-29T08:33:13.847Z,93.75
2016-12-29T08:34:14.260Z,94.27
2016-12-29T08:35:14.252Z,93.75
2016-12-29T08:36:14.244Z,94.32
2016-12-29T08:37:14.236Z,94.03
2016-12-29T08:38:14.240Z,94.32
2016-12-29T08:39:14.228Z,93.94
2016-12-29T08:40:14.224Z,93.84
2016-12-29T08:41:13.804Z,94.22
2016-12-29T08:42:13.800Z,94.32
2016-12-29T08:43:13.800Z,94.13
2016-12-29T08:44:14.204Z,94.32
2016-12-29T08:45:14.200Z,94.13
2016-12-29T08:46:13.795Z,94.22
2016-12-29T08:47:14.186Z,94.22
2016-12-29T08:48:14.180Z,94.03
2016-12-29T08:49:13.772Z,94.41
2016-12-29T08:50:14.172Z,94.41
2016-12-29T08:51:14.168Z,94.22
2016-12-29T08:52:14.160Z,94.32
2016-12-29T08:53:13.748Z,94.51
2016-12-29T08:54:13.744Z,94.51
2016-12-29T08:55:14.148Z,94.51
2016-12-29T08:56:14.140Z,94.51
2016-12-29T08:57:14.129Z,94.41
2016-12-29T08:58:13.716Z,94.32
2016-12-29T08:59:14.133Z,94.32
2016-12-29T09:00:14.125Z,94.51
2016-12-29T09:01:14.117Z,94.6
2016-12-29T09:02:13.704Z,94.51
2016-12-29T09:03:14.105Z,94.51
2016-12-29T09:04:14.105Z,94.32
2016-12-29T09:05:13.689Z,94.13
2016-12-29T09:06:14.094Z,94.41
2016-12-29T09:07:14.088Z,94.37
2016-12-29T09:08:14.084Z,94.89
2016-12-29T09:09:14.085Z,94.79
2016-12-29T09:10:14.081Z,94.27
2016-12-29T09:11:14.069Z,94.74
2016-12-29T09:12:13.677Z,94.74
2016-12-29T09:13:14.061Z,94.27
2016-12-29T09:14:13.645Z,94.74
2016-12-29T09:15:13.637Z,95.03
2016-12-29T09:16:14.049Z,95.03
2016-12-29T09:17:14.037Z,94.93
2016-12-29T09:18:14.038Z,94.46
2016-12-29T09:19:14.029Z,94.46
2016-12-29T09:20:13.614Z,94.46
2016-12-29T09:21:14.021Z,94.56
2016-12-29T09:22:14.017Z,94.46
2016-12-29T09:23:14.009Z,94.46
2016-12-29T09:24:14.005Z,95.12
2016-12-29T09:25:13.593Z,95.21
2016-12-29T09:26:14.001Z,94.65
2016-12-29T09:27:13.993Z,94.37
2016-12-29T09:28:13.990Z,94.08
2016-12-29T09:29:13.982Z,94.18
2016-12-29T09:30:13.982Z,95.31
2016-12-29T09:31:13.977Z,94.46
2016-12-29T09:32:13.974Z,94.27
2016-12-29T09:33:13.958Z,94.37
2016-12-29T09:34:13.962Z,94.56
2016-12-29T09:35:13.958Z,94.18
2016-12-29T09:36:13.942Z,94.74
2016-12-29T09:37:13.978Z,95.12
2016-12-29T09:38:13.930Z,94.18
2016-12-29T09:39:13.522Z,94.18
2016-12-29T09:40:13.934Z,94.89
2016-12-29T09:41:13.926Z,94.89
2016-12-29T09:42:13.926Z,94.89
2016-12-29T09:43:13.510Z,95.26
2016-12-29T09:44:13.506Z,94.51
2016-12-29T09:45:13.494Z,95.17
2016-12-29T09:46:13.898Z,94.89
2016-12-29T09:47:13.902Z,94.7
2016-12-29T09:48:13.490Z,94.89
2016-12-29T09:49:13.886Z,94.98
2016-12-29T09:50:13.470Z,94.89
2016-12-29T09:51:13.882Z,94.79
2016-12-29T09:52:13.875Z,94.79
2016-12-29T09:53:13.462Z,94.7
2016-12-29T09:54:13.867Z,95.17
2016-12-29T09:55:13.450Z,95.17
2016-12-29T09:56:13.859Z,94.79
2016-12-29T09:57:13.854Z,94.7
2016-12-29T09:58:13.439Z,94.7
2016-12-29T09:59:13.843Z,94.41
2016-12-29T10:00:13.843Z,94.41
2016-12-29T10:01:13.427Z,95.26
2016-12-29T10:02:13.823Z,95.17
2016-12-29T10:03:13.823Z,94.51
2016-12-29T10:04:13.818Z,94.32
2016-12-29T10:05:13.811Z,94.6
2016-12-29T10:06:13.811Z,94.51
2016-12-29T10:07:13.803Z,94.6
2016-12-29T10:08:13.811Z,94.22
2016-12-29T10:09:13.387Z,95.54
2016-12-29T10:10:13.415Z,95.36
2016-12-29T10:11:13.787Z,94.13
2016-12-29T10:12:13.371Z,94.65
2016-12-29T10:13:13.783Z,94.74
2016-12-29T10:14:13.771Z,94.46
2016-12-29T10:15:13.771Z,94.56
2016-12-29T10:16:13.359Z,94.74
2016-12-29T10:17:13.763Z,94.84
2016-12-29T10:18:13.755Z,95.12
2016-12-29T10:19:13.751Z,94.65
2016-12-29T10:20:13.339Z,95.12
2016-12-29T10:21:13.747Z,94.46
2016-12-29T10:22:13.327Z,95.03
2016-12-29T10:23:13.735Z,94.56
2016-12-29T10:24:13.735Z,94.46
2016-12-29T10:25:13.728Z,94.74
2016-12-29T10:26:13.720Z,94.56
2016-12-29T10:27:13.720Z,94.56
2016-12-29T10:28:13.712Z,95.21
2016-12-29T10:29:13.708Z,95.12
2016-12-29T10:30:13.707Z,95.12
2016-12-29T10:31:13.292Z,95.12
2016-12-29T10:32:13.292Z,95.59
2016-12-29T10:33:13.696Z,94.56
2016-12-29T10:34:13.711Z,94.56
2016-12-29T10:35:13.688Z,95.12
2016-12-29T10:36:13.680Z,94.74
2016-12-29T10:37:13.259Z,94.56
2016-12-29T10:38:13.255Z,95.12
2016-12-29T10:39:13.660Z,94.6
2016-12-29T10:40:13.252Z,94.6
2016-12-29T10:41:13.648Z,94.7
2016-12-29T10:42:13.652Z,94.89
2016-12-29T10:43:13.652Z,94.89
2016-12-29T10:44:13.644Z,94.98
2016-12-29T10:45:13.236Z,94.6
2016-12-29T10:46:13.228Z,94.51
2016-12-29T10:47:13.637Z,94.89
2016-12-29T10:48:13.629Z,94.7
2016-12-29T10:49:13.620Z,94.32
2016-12-29T10:50:13.619Z,94.32
2016-12-29T10:51:13.608Z,94.51
2016-12-29T10:52:13.196Z,94.42
2016-12-29T10:53:13.196Z,94.7
2016-12-29T10:54:13.189Z,94.79
2016-12-29T10:55:13.180Z,94.51
2016-12-29T10:56:13.177Z,93.94
2016-12-29T10:57:13.181Z,94.04
2016-12-29T10:58:13.173Z,93.47
2016-12-29T10:59:13.169Z,93.75
2016-12-29T11:00:13.165Z,93.66
2016-12-29T11:01:13.161Z,93.94
2016-12-29T11:02:13.149Z,93.94
2016-12-29T11:03:13.153Z,93.85
2016-12-29T11:04:13.149Z,93.94
2016-12-29T11:05:13.557Z,94.23
2016-12-29T11:06:13.141Z,93.85
2016-12-29T11:07:13.137Z,93.66
2016-12-29T11:08:13.541Z,93.56
2016-12-29T11:09:13.534Z,93.56
2016-12-29T11:10:13.537Z,93.37
2016-12-29T11:11:13.533Z,93.47
2016-12-29T11:12:13.526Z,93.56
2016-12-29T11:13:13.113Z,93.56
2016-12-29T11:14:13.517Z,93.56
2016-12-29T11:15:13.505Z,93.61
2016-12-29T11:16:13.517Z,93.09
2016-12-29T11:17:13.505Z,93.37
2016-12-29T11:18:13.093Z,93.32
2016-12-29T11:19:13.493Z,93.89
2016-12-29T11:20:13.077Z,93.89
2016-12-29T11:21:13.077Z,93.23
2016-12-29T11:22:13.481Z,93.23
2016-12-29T11:23:13.477Z,93.51
2016-12-29T11:24:13.477Z,93.32
2016-12-29T11:25:13.466Z,93.42
2016-12-29T11:26:13.470Z,93.32
2016-12-29T11:27:13.465Z,93.42
2016-12-29T11:28:13.049Z,93.61
2016-12-29T11:29:13.454Z,93.7
2016-12-29T11:30:13.445Z,92.94
2016-12-29T11:31:13.038Z,93.8
2016-12-29T11:32:13.438Z,93.32
2016-12-29T11:33:13.438Z,93.51
2016-12-29T11:34:13.434Z,93.51
2016-12-29T11:35:13.434Z,93.04
2016-12-29T11:36:13.426Z,93.8
2016-12-29T11:37:13.422Z,92.94
2016-12-29T11:38:13.413Z,93.7
2016-12-29T11:39:13.006Z,93.8
2016-12-29T11:40:13.410Z,93.13
2016-12-29T11:41:13.410Z,92.94
2016-12-29T11:42:13.402Z,92.47
2016-12-29T11:43:13.402Z,92.1
2016-12-29T11:44:13.395Z,92.66
2016-12-29T11:45:13.389Z,92.38
2016-12-29T11:46:13.382Z,92.85
2016-12-29T11:47:13.374Z,92.76
2016-12-29T11:48:12.966Z,92.38
2016-12-29T11:49:13.374Z,92.29
2016-12-29T11:50:13.370Z,92.14
2016-12-29T11:51:13.362Z,92.29
2016-12-29T11:52:12.950Z,92.1
2016-12-29T11:53:13.358Z,92.24
2016-12-29T11:54:13.354Z,92.43
2016-12-29T11:55:12.938Z,92.24
2016-12-29T11:56:13.346Z,92.24
2016-12-29T11:57:13.334Z,92.8
2016-12-29T11:58:13.338Z,91.76
2016-12-29T11:59:12.926Z,91.19
2016-12-29T12:00:13.330Z,90.72
2016-12-29T12:01:13.326Z,89.58
2016-12-29T12:02:12.910Z,88.82
2016-12-29T12:03:13.322Z,87.31
2016-12-29T12:04:12.910Z,86.03
2016-12-29T12:05:13.462Z,84.99
2016-12-29T12:06:13.310Z,84.51
2016-12-29T12:07:13.306Z,83.28
2016-12-29T12:08:12.890Z,82.43
2016-12-29T12:09:13.294Z,82.81
2016-12-29T12:10:13.302Z,82.33
2016-12-29T12:11:12.882Z,82.24
2016-12-29T12:12:13.286Z,82.24
2016-12-29T12:13:13.279Z,81.48
2016-12-29T12:14:12.866Z,81.57
2016-12-29T12:15:13.274Z,81.86
2016-12-29T12:16:13.266Z,82.33
2016-12-29T12:17:13.266Z,82.24
2016-12-29T12:18:13.278Z,82.24
2016-12-29T12:19:12.846Z,82.05
2016-12-29T12:20:13.246Z,82.33
2016-12-29T12:21:13.246Z,82.24
2016-12-29T12:22:13.246Z,82.14
2016-12-29T12:23:13.242Z,82.9
2016-12-29T12:24:12.826Z,82.62
2016-12-29T12:25:13.234Z,82.71
2016-12-29T12:26:12.818Z,82.43
2016-12-29T12:27:13.229Z,82.86
2016-12-29T12:28:13.214Z,82.62
2016-12-29T12:29:13.218Z,82.33
2016-12-29T12:30:13.232Z,82.57
2016-12-29T12:31:12.794Z,82.86
2016-12-29T12:32:13.205Z,82.9
2016-12-29T12:33:13.198Z,82.33
2016-12-29T12:34:13.197Z,82.76
2016-12-29T12:35:12.785Z,82.86
2016-12-29T12:36:13.192Z,82.86
2016-12-29T12:37:13.190Z,82.67
2016-12-29T12:38:13.177Z,82.86
2016-12-29T12:39:13.178Z,82.57
2016-12-29T12:40:13.173Z,82.86
2016-12-29T12:41:13.161Z,82.67
2016-12-29T12:42:12.753Z,83.05
2016-12-29T12:43:13.165Z,83.24
2016-12-29T12:44:13.157Z,83.14
2016-12-29T12:45:13.161Z,83.05
2016-12-29T12:46:13.157Z,82.57
2016-12-29T12:47:13.141Z,82.57
2016-12-29T12:48:13.145Z,82.57
2016-12-29T12:49:12.729Z,82.76
2016-12-29T12:50:13.137Z,83.24
2016-12-29T12:51:13.137Z,83.24
2016-12-29T12:52:13.129Z,82.86
2016-12-29T12:53:13.121Z,83.05
2016-12-29T12:54:13.117Z,83.05
2016-12-29T12:55:12.724Z,83.14
2016-12-29T12:56:13.117Z,83.14